createdAt,value
2023-04-15T00:01:58.660Z,85.80
2023-04-15T00:04:25.945Z,86.05
2023-04-15T00:06:53.483Z,85.87
2023-04-15T00:09:21.098Z,85.94
2023-04-15T00:11:48.070Z,86.13
2023-04-15T00:14:15.658Z,86.08
2023-04-15T00:16:44.564Z,86.36
2023-04-15T00:19:12.319Z,86.53
2023-04-15T00:21:39.888Z,86.72
2023-04-15T00:24:07.037Z,86.82
2023-04-15T00:26:34.090Z,86.79
2023-04-15T00:29:02.542Z,87.09
2023-04-15T00:31:30.696Z,87.38
2023-04-15T00:33:58.592Z,87.61
2023-04-15T00:36:26.454Z,87.84
2023-04-15T00:38:54.127Z,88.18
2023-04-15T00:41:21.121Z,88.72
2023-04-15T00:43:49.452Z,89.00
2023-04-15T00:46:16.537Z,89.27
2023-04-15T00:48:43.461Z,89.96
2023-04-15T00:51:10.802Z,90.45
2023-04-15T00:53:37.750Z,90.98
2023-04-15T00:56:06.659Z,90.97
2023-04-15T00:58:35.232Z,90.94
2023-04-15T01:01:02.889Z,91.00
2023-04-15T01:03:31.411Z,90.89
2023-04-15T01:06:00.252Z,90.80
2023-04-15T01:08:29.102Z,90.97
2023-04-15T01:10:57.120Z,91.14
2023-04-15T01:13:24.542Z,91.15
2023-04-15T01:15:52.486Z,91.06
2023-04-15T01:18:19.984Z,90.97
2023-04-15T01:20:47.633Z,91.04
2023-04-15T01:23:14.712Z,91.00
2023-04-15T01:25:42.037Z,91.13
2023-04-15T01:28:10.178Z,91.32
2023-04-15T01:30:37.339Z,91.49
2023-04-15T01:33:06.750Z,91.21
2023-04-15T01:35:33.873Z,90.75
2023-04-15T01:38:06.174Z,90.57
2023-04-15T01:40:33.847Z,89.75
2023-04-15T01:43:01.571Z,89.35
2023-04-15T01:45:28.782Z,89.20
2023-04-15T01:47:55.985Z,88.85
2023-04-15T01:50:22.883Z,88.44
2023-04-15T01:52:52.186Z,88.19
2023-04-15T01:55:19.120Z,87.80
2023-04-15T01:57:47.796Z,87.50
2023-04-15T02:00:14.898Z,87.12
2023-04-15T02:02:42.466Z,86.92
2023-04-15T02:05:09.645Z,86.68
2023-04-15T02:07:38.017Z,86.45
2023-04-15T02:10:06.589Z,86.45
2023-04-15T02:12:37.187Z,86.36
2023-04-15T02:15:04.596Z,86.33
2023-04-15T02:17:41.137Z,86.26
2023-04-15T02:20:10.710Z,86.16
2023-04-15T02:22:37.784Z,85.88
2023-04-15T02:25:05.164Z,85.76
2023-04-15T02:27:33.411Z,85.92
2023-04-15T02:30:01.284Z,85.97
2023-04-15T02:32:29.257Z,86.10
2023-04-15T02:35:09.023Z,86.26
2023-04-15T02:37:40.889Z,86.43
2023-04-15T02:40:14.512Z,86.38
2023-04-15T02:42:41.970Z,86.33
2023-04-15T02:45:12.965Z,86.52
2023-04-15T02:47:44.075Z,86.33
2023-04-15T02:50:12.964Z,86.32
2023-04-15T02:52:41.961Z,86.57
2023-04-15T02:55:11.686Z,86.76
2023-04-15T02:57:41.244Z,86.95
2023-04-15T03:00:11.640Z,87.24
2023-04-15T03:02:42.458Z,87.53
2023-04-15T03:05:13.404Z,87.63
2023-04-15T03:07:44.103Z,87.72
2023-04-15T03:10:11.825Z,87.83
2023-04-15T03:12:38.957Z,87.87
2023-04-15T03:15:09.737Z,87.87
2023-04-15T03:17:41.655Z,88.08
2023-04-15T03:20:09.708Z,88.04
2023-04-15T03:22:39.300Z,88.21
2023-04-15T03:25:07.213Z,88.38
2023-04-15T03:27:34.875Z,88.67
2023-04-15T03:30:09.070Z,88.78
2023-04-15T03:32:39.100Z,88.80
2023-04-15T03:35:07.042Z,88.74
2023-04-15T03:37:35.868Z,88.98
2023-04-15T03:40:02.933Z,88.86
2023-04-15T03:42:30.176Z,88.80
2023-04-15T03:44:59.291Z,89.11
2023-04-15T03:47:26.392Z,89.30
2023-04-15T03:49:53.235Z,89.18
2023-04-15T03:52:20.515Z,88.98
2023-04-15T03:54:47.924Z,88.84
2023-04-15T03:57:19.679Z,88.68
2023-04-15T03:59:48.327Z,88.59
2023-04-15T04:02:15.691Z,88.49
2023-04-15T04:04:43.899Z,88.49
2023-04-15T04:07:18.238Z,87.93
2023-04-15T04:09:47.295Z,87.77
2023-04-15T04:12:14.455Z,87.45
2023-04-15T04:14:45.103Z,87.52
2023-04-15T04:17:12.756Z,87.62
2023-04-15T04:19:39.762Z,87.11
2023-04-15T04:22:09.557Z,86.60
2023-04-15T04:24:37.290Z,86.61
2023-04-15T04:27:04.181Z,86.61
2023-04-15T04:29:33.740Z,86.11
2023-04-15T04:32:41.877Z,86.22
2023-04-15T04:35:09.583Z,86.44
2023-04-15T04:37:39.871Z,86.39
2023-04-15T04:40:08.493Z,86.57
2023-04-15T04:42:37.425Z,86.84
2023-04-15T04:45:09.333Z,86.17
2023-04-15T04:47:37.567Z,86.08
2023-04-15T04:50:05.578Z,86.39
2023-04-15T04:52:33.249Z,86.39
2023-04-15T04:55:01.225Z,86.22
2023-04-15T04:57:28.370Z,86.02
2023-04-15T04:59:59.813Z,85.64
2023-04-15T05:02:27.829Z,85.43
2023-04-15T05:04:55.440Z,85.23
2023-04-15T05:07:29.916Z,85.04
2023-04-15T05:09:57.450Z,84.47
2023-04-15T05:12:24.784Z,84.49
2023-04-15T05:14:52.168Z,84.79
2023-04-15T05:17:26.067Z,84.79
2023-04-15T05:19:54.143Z,84.62
2023-04-15T05:22:22.579Z,84.16
2023-04-15T05:24:49.898Z,82.17
2023-04-15T05:27:17.166Z,81.14
2023-04-15T05:29:44.404Z,80.29
2023-04-15T05:32:11.780Z,78.57
2023-04-15T05:34:40.308Z,76.85
2023-04-15T05:37:07.272Z,76.36
2023-04-15T05:39:34.481Z,76.04
2023-04-15T05:42:02.531Z,74.95
2023-04-15T05:44:30.317Z,74.76
2023-04-15T05:46:58.120Z,74.81
2023-04-15T05:49:25.889Z,74.38
2023-04-15T05:51:53.433Z,73.49
2023-04-15T05:54:20.482Z,73.31
2023-04-15T05:56:48.004Z,72.96
2023-04-15T05:59:15.256Z,73.16
2023-04-15T06:01:43.250Z,72.46
2023-04-15T06:04:11.840Z,72.41
2023-04-15T06:06:39.070Z,71.80
2023-04-15T06:09:06.520Z,71.34
2023-04-15T06:11:34.691Z,71.27
2023-04-15T06:14:02.055Z,71.40
2023-04-15T06:16:29.784Z,71.34
2023-04-15T06:18:57.146Z,71.53
2023-04-15T06:21:24.518Z,71.05
2023-04-15T06:23:51.595Z,71.03
2023-04-15T06:26:19.268Z,70.54
2023-04-15T06:28:46.996Z,69.77
2023-04-15T06:31:14.570Z,69.67
2023-04-15T06:33:41.543Z,69.32
2023-04-15T06:36:08.600Z,69.03
2023-04-15T06:38:37.797Z,67.77
2023-04-15T06:41:06.269Z,66.66
2023-04-15T06:43:33.293Z,65.50
2023-04-15T06:46:00.560Z,65.35
2023-04-15T06:48:27.817Z,65.72
2023-04-15T06:50:57.370Z,65.54
2023-04-15T06:53:30.549Z,65.69
2023-04-15T06:55:57.779Z,65.00
2023-04-15T06:58:24.677Z,63.59
2023-04-15T07:00:52.992Z,62.87
2023-04-15T07:03:20.188Z,62.34
2023-04-15T07:05:47.451Z,61.93
2023-04-15T07:08:14.916Z,62.23
2023-04-15T07:10:42.120Z,61.73
2023-04-15T07:13:09.780Z,60.47
2023-04-15T07:15:36.815Z,59.03
2023-04-15T07:18:07.988Z,57.25
2023-04-15T07:20:34.887Z,56.98
2023-04-15T07:23:02.324Z,57.74
2023-04-15T07:25:33.414Z,57.38
2023-04-15T07:28:00.564Z,57.56
2023-04-15T07:30:27.524Z,57.70
2023-04-15T07:32:54.709Z,57.37
2023-04-15T07:35:21.768Z,56.26
2023-04-15T07:37:48.750Z,56.11
2023-04-15T07:40:16.328Z,55.13
2023-04-15T07:42:49.620Z,54.18
2023-04-15T07:45:17.000Z,53.99
2023-04-15T07:47:43.977Z,54.82
2023-04-15T07:50:14.836Z,55.62
2023-04-15T07:52:46.684Z,55.11
2023-04-15T07:55:13.979Z,55.52
2023-04-15T07:57:41.284Z,56.51
2023-04-15T08:00:10.022Z,56.77
2023-04-15T08:02:40.845Z,57.15
2023-04-15T08:05:09.365Z,57.90
2023-04-15T08:07:38.006Z,57.93
2023-04-15T08:10:06.515Z,58.45
2023-04-15T08:12:34.320Z,57.79
2023-04-15T08:15:03.006Z,56.96
2023-04-15T08:17:35.901Z,57.02
2023-04-15T08:20:05.990Z,56.25
2023-04-15T08:22:33.621Z,56.24
2023-04-15T08:25:07.363Z,55.13
2023-04-15T08:27:39.620Z,54.99
2023-04-15T08:30:08.077Z,55.54
2023-04-15T08:32:35.179Z,55.54
2023-04-15T08:35:08.026Z,56.63
2023-04-15T08:37:35.427Z,57.62
2023-04-15T08:40:02.367Z,56.89
2023-04-15T08:42:45.169Z,56.74
2023-04-15T08:45:13.429Z,56.36
2023-04-15T08:47:41.860Z,56.66
2023-04-15T08:50:09.512Z,57.01
2023-04-15T08:52:42.373Z,54.94
2023-04-15T08:55:10.937Z,53.27
2023-04-15T08:57:39.972Z,51.74
2023-04-15T09:00:09.472Z,51.68
2023-04-15T09:02:36.961Z,51.35
2023-04-15T09:05:06.637Z,51.86
2023-04-15T09:07:35.845Z,52.44
2023-04-15T09:10:04.149Z,52.56
2023-04-15T09:12:36.964Z,52.32
2023-04-15T09:15:04.313Z,52.93
2023-04-15T09:17:33.266Z,52.29
2023-04-15T09:20:10.852Z,52.07
2023-04-15T09:22:38.187Z,53.04
2023-04-15T09:25:28.993Z,52.81
2023-04-15T09:27:59.169Z,52.92
2023-04-15T09:30:27.545Z,53.68
2023-04-15T09:32:59.148Z,54.06
2023-04-15T09:35:27.633Z,54.36
2023-04-15T09:38:05.465Z,55.53
2023-04-15T09:40:39.797Z,56.36
2023-04-15T09:43:13.236Z,55.69
2023-04-15T09:45:47.342Z,55.00
2023-04-15T09:48:23.385Z,54.79
2023-04-15T09:50:50.460Z,54.28
2023-04-15T09:53:23.277Z,54.17
2023-04-15T09:59:44.205Z,53.93
2023-04-15T10:02:11.252Z,54.18
2023-04-15T10:04:40.163Z,54.65
2023-04-15T10:07:09.069Z,54.69
2023-04-15T10:09:35.815Z,55.42
2023-04-15T10:12:04.883Z,55.89
2023-04-15T10:14:33.003Z,56.29
2023-04-15T10:17:01.112Z,57.32
2023-04-15T10:19:27.426Z,56.92
2023-04-15T10:21:54.268Z,56.81
2023-04-15T10:24:20.685Z,56.70
2023-04-15T10:26:47.560Z,55.00
2023-04-15T10:29:13.992Z,54.58
2023-04-15T10:31:40.561Z,55.10
2023-04-15T10:34:06.865Z,55.22
2023-04-15T10:36:33.385Z,55.30
2023-04-15T10:38:59.672Z,54.88
2023-04-15T10:41:29.246Z,55.00
2023-04-15T10:43:57.265Z,55.49
2023-04-15T10:46:39.626Z,56.22
2023-04-15T10:49:13.406Z,56.27
2023-04-15T10:51:42.141Z,55.98
2023-04-15T10:54:15.712Z,55.72
2023-04-15T10:56:43.312Z,55.23
2023-04-15T10:59:09.801Z,53.85
2023-04-15T11:02:02.254Z,53.82
2023-04-15T11:04:53.918Z,54.19
2023-04-15T11:07:40.605Z,54.00
2023-04-15T11:10:12.833Z,54.44
2023-04-15T11:12:39.906Z,53.85
2023-04-15T11:15:37.372Z,53.96
2023-04-15T11:18:16.662Z,54.41
2023-04-15T11:20:51.542Z,54.75
2023-04-15T11:23:18.661Z,54.24
2023-04-15T11:25:45.584Z,53.60
2023-04-15T11:28:12.869Z,54.21
2023-04-15T11:30:39.443Z,54.25
2023-04-15T11:33:11.696Z,54.09
2023-04-15T11:35:41.320Z,52.73
2023-04-15T11:38:11.442Z,53.02
2023-04-15T11:40:37.829Z,52.82
2023-04-15T11:43:20.989Z,53.30
2023-04-15T11:45:55.255Z,53.27
2023-04-15T11:48:29.069Z,53.45
2023-04-15T11:50:56.648Z,53.43
2023-04-15T11:53:23.640Z,51.85
2023-04-15T11:55:51.201Z,51.10
2023-04-15T11:58:25.238Z,51.12
2023-04-15T12:00:57.050Z,51.42
2023-04-15T12:03:25.386Z,51.54
2023-04-15T12:06:11.034Z,52.05
2023-04-15T12:09:17.599Z,52.57
2023-04-15T12:11:46.943Z,52.62
2023-04-15T12:14:21.975Z,52.19
2023-04-15T12:16:50.292Z,52.02
2023-04-15T12:19:25.299Z,52.15
2023-04-15T12:21:54.108Z,51.80
2023-04-15T12:24:22.295Z,51.87
2023-04-15T12:26:53.538Z,52.16
2023-04-15T12:29:20.541Z,52.01
2023-04-15T12:32:09.343Z,52.10
2023-04-15T12:34:55.196Z,52.68
2023-04-15T12:37:21.471Z,53.06
2023-04-15T12:39:48.510Z,52.69
2023-04-15T12:42:15.327Z,53.13
2023-04-15T12:44:41.646Z,53.08
2023-04-15T12:47:08.714Z,53.40
2023-04-15T12:49:35.290Z,53.34
2023-04-15T12:52:02.001Z,53.57
2023-04-15T12:54:28.990Z,53.74
2023-04-15T12:56:55.672Z,53.71
2023-04-15T12:59:23.359Z,54.01
2023-04-15T13:01:49.746Z,54.24
2023-04-15T13:04:16.612Z,54.52
2023-04-15T13:06:43.044Z,54.38
2023-04-15T13:09:09.260Z,54.59
2023-04-15T13:11:37.209Z,54.90
2023-04-15T13:14:04.722Z,55.40
2023-04-15T13:16:31.525Z,55.75
2023-04-15T13:19:02.018Z,55.78
2023-04-15T13:21:28.499Z,55.97
2023-04-15T13:23:56.113Z,55.91
2023-04-15T13:26:22.904Z,55.94
2023-04-15T13:28:49.312Z,56.44
2023-04-15T13:31:15.750Z,56.53
2023-04-15T13:33:42.311Z,56.59
2023-04-15T13:36:08.927Z,56.77
2023-04-15T13:38:35.268Z,57.14
2023-04-15T13:41:01.510Z,57.09
2023-04-15T13:43:28.787Z,57.31
2023-04-15T13:45:55.416Z,57.14
2023-04-15T13:48:22.222Z,57.59
2023-04-15T13:50:48.549Z,57.81
2023-04-15T13:53:14.817Z,57.49
2023-04-15T13:55:42.052Z,57.33
2023-04-15T13:58:08.839Z,57.33
2023-04-15T14:00:35.140Z,57.44
2023-04-15T14:03:01.565Z,56.97
2023-04-15T14:05:28.033Z,56.83
2023-04-15T14:07:54.255Z,56.66
2023-04-15T14:10:20.786Z,56.90
2023-04-15T14:12:47.238Z,57.31
2023-04-15T14:15:13.824Z,57.75
2023-04-15T14:17:41.804Z,57.18
2023-04-15T14:20:09.354Z,56.66
2023-04-15T14:22:36.242Z,57.21
2023-04-15T14:25:02.644Z,57.64
2023-04-15T14:27:29.346Z,57.99
2023-04-15T14:29:57.132Z,57.93
2023-04-15T14:32:24.931Z,57.66
2023-04-15T14:34:51.526Z,57.94
2023-04-15T14:37:17.801Z,57.53
2023-04-15T14:39:44.277Z,57.30
2023-04-15T14:42:10.782Z,57.19
2023-04-15T14:44:37.280Z,57.17
2023-04-15T14:47:03.542Z,57.66
2023-04-15T14:49:30.086Z,57.77
2023-04-15T14:51:56.493Z,57.61
2023-04-15T14:54:22.891Z,57.68
2023-04-15T14:56:49.281Z,57.59
2023-04-15T14:59:15.492Z,57.30
2023-04-15T15:01:41.992Z,56.99
2023-04-15T15:04:09.874Z,57.39
2023-04-15T15:06:36.420Z,57.67
2023-04-15T15:09:04.361Z,57.98
2023-04-15T15:11:31.156Z,58.10
2023-04-15T15:13:57.805Z,57.93
2023-04-15T15:16:24.478Z,57.83
2023-04-15T15:18:50.798Z,58.18
2023-04-15T15:21:17.370Z,58.31
2023-04-15T15:23:44.387Z,58.64
2023-04-15T15:26:11.521Z,58.99
2023-04-15T15:28:38.167Z,59.35
2023-04-15T15:31:05.029Z,59.18
2023-04-15T15:33:31.403Z,59.38
2023-04-15T15:35:57.929Z,59.53
2023-04-15T15:38:24.290Z,59.96
2023-04-15T15:40:51.488Z,60.30
2023-04-15T15:43:17.729Z,60.31
2023-04-15T15:45:44.059Z,60.35
2023-04-15T15:48:10.401Z,60.47
2023-04-15T15:50:37.268Z,60.36
2023-04-15T15:53:03.649Z,60.69
2023-04-15T15:55:30.298Z,60.86
2023-04-15T15:57:56.656Z,61.15
2023-04-15T16:00:24.095Z,61.21
2023-04-15T16:05:24.344Z,61.21
2023-04-15T16:07:50.764Z,61.18
2023-04-15T16:10:17.571Z,61.40
2023-04-15T16:12:44.213Z,61.43
2023-04-15T16:15:11.727Z,61.60
2023-04-15T16:17:38.487Z,61.95
2023-04-15T16:20:05.861Z,62.06
2023-04-15T16:22:36.527Z,62.07
2023-04-15T16:25:29.320Z,62.22
2023-04-15T16:28:05.558Z,62.45
2023-04-15T16:30:38.934Z,62.46
2023-04-15T16:33:05.937Z,62.70
2023-04-15T16:35:34.649Z,62.87
2023-04-15T16:38:01.421Z,63.01
2023-04-15T16:40:27.952Z,63.34
2023-04-15T16:42:54.530Z,63.48
2023-04-15T16:45:21.105Z,63.79
2023-04-15T16:47:47.685Z,63.98
2023-04-15T16:50:14.039Z,64.05
2023-04-15T16:52:40.840Z,64.47
2023-04-15T16:55:07.458Z,64.70
2023-04-15T16:58:01.172Z,64.76
2023-04-15T17:00:20.405Z,64.71
2023-04-15T17:02:47.050Z,64.47
2023-04-15T17:05:13.510Z,64.55
2023-04-15T17:07:39.830Z,64.40
2023-04-15T17:10:07.078Z,64.50
2023-04-15T17:12:33.695Z,64.52
2023-04-15T17:15:00.441Z,64.35
2023-04-15T17:17:26.781Z,64.33
2023-04-15T17:19:53.831Z,64.19
2023-04-15T17:22:20.508Z,64.27
2023-04-15T17:24:46.703Z,64.16
2023-04-15T17:27:13.011Z,64.32
2023-04-15T17:29:39.397Z,64.45
2023-04-15T17:32:05.601Z,64.50
2023-04-15T17:34:49.841Z,64.73
2023-04-15T17:37:17.622Z,64.96
2023-04-15T17:39:44.429Z,64.97
2023-04-15T17:42:10.966Z,64.98
2023-04-15T17:44:37.574Z,65.03
2023-04-15T17:47:03.809Z,65.04
2023-04-15T17:49:30.689Z,65.20
2023-04-15T17:51:57.224Z,65.25
2023-04-15T17:54:24.306Z,65.19
2023-04-15T17:56:53.358Z,65.35
2023-04-15T17:59:19.625Z,65.17
2023-04-15T18:01:46.298Z,64.99
2023-04-15T18:04:13.004Z,65.21
2023-04-15T18:06:39.814Z,65.25
2023-04-15T18:09:06.597Z,65.24
2023-04-15T18:11:33.893Z,65.59
2023-04-15T18:14:02.094Z,65.68
2023-04-15T18:16:29.061Z,65.59
2023-04-15T18:18:55.408Z,65.77
2023-04-15T18:21:21.975Z,65.88
2023-04-15T18:23:48.447Z,65.75
2023-04-15T18:26:15.142Z,66.00
2023-04-15T18:28:41.571Z,66.06
2023-04-15T18:31:09.989Z,66.10
2023-04-15T18:33:36.936Z,66.39
2023-04-15T18:36:03.587Z,66.33
2023-04-15T18:38:30.049Z,66.26
2023-04-15T18:40:56.424Z,66.21
2023-04-15T18:43:22.800Z,66.30
2023-04-15T18:45:51.279Z,66.27
2023-04-15T18:48:17.806Z,66.39
2023-04-15T18:50:45.214Z,66.44
2023-04-15T18:53:11.882Z,66.59
2023-04-15T18:55:39.015Z,66.68
2023-04-15T18:58:08.881Z,66.98
2023-04-15T19:00:39.778Z,67.14
2023-04-15T19:03:06.580Z,67.05
2023-04-15T19:05:33.575Z,67.10
2023-04-15T19:07:59.943Z,67.00
2023-04-15T19:10:27.487Z,67.19
2023-04-15T19:12:54.380Z,67.08
2023-04-15T19:15:20.740Z,67.22
2023-04-15T19:17:46.996Z,67.26
2023-04-15T19:20:14.065Z,67.48
2023-04-15T19:22:41.044Z,67.48
2023-04-15T19:25:07.543Z,67.82
2023-04-15T19:27:33.875Z,68.02
2023-04-15T19:29:59.994Z,68.13
2023-04-15T19:32:27.627Z,68.28
2023-04-15T19:34:53.787Z,68.44
2023-04-15T19:37:20.078Z,68.43
2023-04-15T19:39:47.318Z,68.65
2023-04-15T19:42:13.690Z,68.68
2023-04-15T19:44:42.168Z,68.66
2023-04-15T19:47:09.332Z,68.73
2023-04-15T19:49:35.617Z,68.94
2023-04-15T19:52:03.543Z,68.79
2023-04-15T19:54:33.377Z,68.95
2023-04-15T19:57:01.004Z,69.17
2023-04-15T19:59:27.221Z,69.02
2023-04-15T20:01:53.471Z,68.89
2023-04-15T20:04:20.065Z,68.90
2023-04-15T20:06:46.668Z,69.01
2023-04-15T20:09:12.913Z,68.98
2023-04-15T20:12:09.622Z,69.08
2023-04-15T20:14:26.059Z,68.99
2023-04-15T20:16:53.264Z,68.52
2023-04-15T20:19:19.723Z,68.52
2023-04-15T20:21:46.022Z,68.30
2023-04-15T20:24:12.501Z,68.28
2023-04-15T20:26:38.741Z,68.46
2023-04-15T20:29:05.250Z,68.39
2023-04-15T20:31:31.832Z,68.28
2023-04-15T20:33:58.020Z,68.36
2023-04-15T20:36:24.296Z,68.29
2023-04-15T20:38:50.724Z,68.36
2023-04-15T20:41:16.897Z,68.29
2023-04-15T20:43:43.391Z,68.30
2023-04-15T20:46:20.226Z,68.32
2023-04-15T20:48:48.664Z,68.36
2023-04-15T20:51:14.926Z,68.55
2023-04-15T20:53:41.489Z,68.58
2023-04-15T20:56:07.752Z,68.70
2023-04-15T20:58:34.058Z,68.83
2023-04-15T21:01:01.435Z,68.93
2023-04-15T21:03:27.707Z,69.02
2023-04-15T21:05:54.214Z,69.13
2023-04-15T21:08:28.379Z,69.19
2023-04-15T21:10:55.993Z,69.29
2023-04-15T21:13:22.647Z,69.24
2023-04-15T21:15:52.580Z,69.55
2023-04-15T21:18:22.575Z,69.53
2023-04-15T21:21:01.505Z,69.56
2023-04-15T21:23:29.879Z,69.66
2023-04-15T21:25:56.671Z,69.72
2023-04-15T21:28:23.046Z,69.82
2023-04-15T21:30:49.543Z,69.74
2023-04-15T21:33:16.330Z,69.69
2023-04-15T21:35:42.551Z,69.63
2023-04-15T21:38:08.956Z,69.72
2023-04-15T21:40:39.728Z,69.64
2023-04-15T21:43:07.021Z,69.52
2023-04-15T21:45:34.260Z,69.50
2023-04-15T21:48:07.651Z,69.60
2023-04-15T21:50:37.710Z,69.75
2023-04-15T21:53:05.894Z,69.62
2023-04-15T21:55:32.522Z,69.61
2023-04-15T21:57:58.751Z,69.69
2023-04-15T22:00:25.099Z,69.75
2023-04-15T22:02:51.756Z,69.74
2023-04-15T22:05:18.232Z,69.83
2023-04-15T22:07:44.898Z,69.55
2023-04-15T22:10:11.809Z,69.62
2023-04-15T22:12:41.219Z,69.68
2023-04-15T22:16:54.790Z,69.64
2023-04-15T22:19:22.084Z,69.72
2023-04-15T22:21:50.497Z,69.80
2023-04-15T22:24:38.792Z,69.63
2023-04-15T22:27:05.897Z,69.74
2023-04-15T22:29:34.188Z,69.89
2023-04-15T22:32:01.547Z,70.01
2023-04-15T22:34:28.673Z,70.06
2023-04-15T22:36:56.335Z,70.03
2023-04-15T22:39:23.398Z,70.23
2023-04-15T22:41:50.680Z,70.17
2023-04-15T22:44:17.859Z,70.30
2023-04-15T22:46:45.758Z,70.27
2023-04-15T22:49:13.007Z,70.52
2023-04-15T22:51:40.070Z,70.52
2023-04-15T22:54:07.238Z,70.49
2023-04-15T22:56:34.499Z,70.60
2023-04-15T22:59:01.955Z,70.78
2023-04-15T23:01:29.393Z,70.76
2023-04-15T23:04:09.116Z,70.81
2023-04-15T23:06:43.835Z,70.99
2023-04-15T23:09:11.434Z,71.07
2023-04-15T23:11:39.979Z,71.16
2023-04-15T23:14:07.336Z,71.22
2023-04-15T23:16:35.410Z,71.15
2023-04-15T23:19:02.694Z,71.28
2023-04-15T23:21:30.025Z,71.29
2023-04-15T23:23:57.257Z,71.46
2023-04-15T23:26:24.405Z,71.37
2023-04-15T23:28:51.459Z,71.29
2023-04-15T23:31:18.450Z,71.18
2023-04-15T23:33:45.885Z,71.27
2023-04-15T23:36:13.115Z,71.17
2023-04-15T23:38:42.200Z,70.93
2023-04-15T23:41:10.305Z,70.93
2023-04-15T23:43:37.855Z,70.96
2023-04-15T23:46:04.998Z,71.08
2023-04-15T23:48:31.989Z,71.00
2023-04-15T23:50:59.324Z,70.92
2023-04-15T23:53:26.692Z,70.95
2023-04-15T23:55:53.653Z,70.97
2023-04-15T23:58:21.035Z,71.08
